Rosharon, Texas
Current Conditions -  °F | °C
As of 5:35 PM on Saturday 20 Dec 2014 (Local Time) from KAXH Reporting Station
Overcast Overcast  
Wind Chill: 42°   Ceiling: 1400
Heat Index: 46°   Visibility: 10mi
Dew Point: 43°   Wind: 7mph
Humidity: 91%   Direction: 360°N
Pressure: 30.16"   Gusts: NA
Location:  29.35°N, 95.46°W
Report Text: KAXH 202335Z AUTO 36006KT 10SM OVC014 08/06 A3016 RMK AO2 T00750061
Loading
Personal Weather Stations






























Interactive Weather Map New forecast layout! Learn more

10-Day Weather Forecast

Advertisements
Track Severe Weather on mobile